Etusivu
METAR-TAF:

METAR-TAF

Lentoasemat :

Kööpenhamina, Tanska

Kööpenhaminan lentoasema

Leveyspiiri: 55-37N, Pituuspiiri: 012-39E, korkeus merenpinnasta: 5 m

Tämänhetkinen sää

Tämä raportti tehtiin 18 minuuttia sitten, kello 01.20 UTC
Tuuli 3 kn etelästä
Lämpötila 1°C
Kosteus 93%
Ilmanpaine 1027 hPa
Näkyvyys 10 km tai enemmän
Muutamia pilviä 1700 ft:n korkeudessa
Pilvistä 4000 ft:n korkeudessa

METAR: EKCH 180120Z 19003KT 9999 FEW017 OVC040 01/M00 Q1027 NOSIG

Aika: 02:38 (01:38 UTC)

Sääennuste

Tämä raportti tehtiin 2 tuntia ja 46 minuuttia sitten, kello 22.52 UTC
Ennuste voimassa 18. päivästä klo 00 UTC - 18. päivään klo 24 UTC
Tuuli 5 kn etelästä/lounaasta
Näkyvyys 10 km tai enemmän
Hajonneita pilviä 3500 ft:n korkeudessa

TAF: EKCH 172252Z 1800/1824 20005KT 9999 BKN035

Säähavainnot ja -ennusteet yli 4000 lentoasemalta (METAR- ja TAF-raportit).

Käytössä olevat sääasemat on merkitty karttaan keltaisilla ja punaisilla pisteillä.

Aseta hiiri pisteen päälle nähdäksesi sääaseman nimen.

Klikkaa sitten nähdäksesi säähavainnot ja -ennusteet.

Kartan vaihtaminen: klikkaa mustalla rastilla varustettuja vihreitä pisteitä, niin voit zoomata sisään; viivalla varustettua vihreää pistettä, niin voit zoomata ulos tai vihreitä nuolia, niin pääset viereisille kartoille.


METAR-TAF: